sensor_id;sensor_type;location;lat;lon;timestamp;P1;durP1;ratioP1;P2;durP2;ratioP2
13847;SDS011;6994;49.752;6.094;2023-04-01T00:00:17;4.05;;;0.68;;
13847;SDS011;6994;49.752;6.094;2023-04-01T00:02:44;4.95;;;1.08;;
13847;SDS011;6994;49.752;6.094;2023-04-01T00:05:12;1.45;;;0.70;;
13847;SDS011;6994;49.752;6.094;2023-04-01T00:07:39;3.85;;;0.68;;
13847;SDS011;6994;49.752;6.094;2023-04-01T00:10:07;6.25;;;1.05;;
13847;SDS011;6994;49.752;6.094;2023-04-01T00:12:33;6.43;;;1.17;;
13847;SDS011;6994;49.752;6.094;2023-04-01T00:15:02;3.37;;;0.60;;
13847;SDS011;6994;49.752;6.094;2023-04-01T00:17:28;2.87;;;0.80;;
13847;SDS011;6994;49.752;6.094;2023-04-01T00:19:56;2.05;;;0.70;;
13847;SDS011;6994;49.752;6.094;2023-04-01T00:22:23;5.18;;;1.15;;
13847;SDS011;6994;49.752;6.094;2023-04-01T00:24:50;1.50;;;0.60;;
13847;SDS011;6994;49.752;6.094;2023-04-01T00:27:17;2.17;;;0.70;;
13847;SDS011;6994;49.752;6.094;2023-04-01T00:29:45;3.72;;;0.70;;
13847;SDS011;6994;49.752;6.094;2023-04-01T00:32:12;2.50;;;0.60;;
13847;SDS011;6994;49.752;6.094;2023-04-01T00:34:39;2.47;;;0.68;;
13847;SDS011;6994;49.752;6.094;2023-04-01T00:37:06;3.25;;;1.20;;
13847;SDS011;6994;49.752;6.094;2023-04-01T00:39:34;4.25;;;1.02;;
13847;SDS011;6994;49.752;6.094;2023-04-01T00:42:02;5.35;;;0.60;;
13847;SDS011;6994;49.752;6.094;2023-04-01T00:44:31;2.62;;;0.70;;
13847;SDS011;6994;49.752;6.094;2023-04-01T00:46:58;7.45;;;1.00;;
13847;SDS011;6994;49.752;6.094;2023-04-01T00:49:27;2.87;;;0.73;;
13847;SDS011;6994;49.752;6.094;2023-04-01T00:51:53;2.20;;;0.75;;
13847;SDS011;6994;49.752;6.094;2023-04-01T00:54:20;5.22;;;1.23;;
13847;SDS011;6994;49.752;6.094;2023-04-01T00:56:50;2.33;;;0.62;;
13847;SDS011;6994;49.752;6.094;2023-04-01T00:59:21;5.12;;;1.17;;
13847;SDS011;6994;49.752;6.094;2023-04-01T01:01:44;4.10;;;0.95;;
13847;SDS011;6994;49.752;6.094;2023-04-01T01:04:25;1.17;;;0.60;;
13847;SDS011;6994;49.752;6.094;2023-04-01T01:06:59;2.70;;;0.90;;
13847;SDS011;6994;49.752;6.094;2023-04-01T01:09:34;3.53;;;0.93;;
13847;SDS011;6994;49.752;6.094;2023-04-01T01:12:10;4.32;;;1.05;;
13847;SDS011;6994;49.752;6.094;2023-04-01T01:19:57;3.45;;;0.95;;
13847;SDS011;6994;49.752;6.094;2023-04-01T01:22:22;3.95;;;0.70;;
13847;SDS011;6994;49.752;6.094;2023-04-01T01:27:37;3.17;;;0.73;;
13847;SDS011;6994;49.752;6.094;2023-04-01T01:30:19;5.40;;;0.73;;
13847;SDS011;6994;49.752;6.094;2023-04-01T01:32:55;1.60;;;0.77;;
13847;SDS011;6994;49.752;6.094;2023-04-01T01:38:19;4.35;;;0.82;;
13847;SDS011;6994;49.752;6.094;2023-04-01T01:40:46;3.28;;;1.58;;
13847;SDS011;6994;49.752;6.094;2023-04-01T01:43:14;5.18;;;1.25;;
13847;SDS011;6994;49.752;6.094;2023-04-01T01:45:40;0.98;;;0.50;;
13847;SDS011;6994;49.752;6.094;2023-04-01T01:48:07;2.85;;;1.08;;
13847;SDS011;6994;49.752;6.094;2023-04-01T01:50:34;2.35;;;0.88;;
13847;SDS011;6994;49.752;6.094;2023-04-01T01:53:05;3.55;;;1.12;;
13847;SDS011;6994;49.752;6.094;2023-04-01T01:55:35;6.78;;;0.88;;
13847;SDS011;6994;49.752;6.094;2023-04-01T01:57:59;5.72;;;1.10;;
13847;SDS011;6994;49.752;6.094;2023-04-01T02:00:26;0.60;;;0.32;;
13847;SDS011;6994;49.752;6.094;2023-04-01T02:02:53;3.72;;;1.10;;
13847;SDS011;6994;49.752;6.094;2023-04-01T02:05:23;4.10;;;0.80;;
13847;SDS011;6994;49.752;6.094;2023-04-01T02:08:01;6.35;;;0.80;;
13847;SDS011;6994;49.752;6.094;2023-04-01T02:10:26;4.68;;;0.62;;
13847;SDS011;6994;49.752;6.094;2023-04-01T02:12:54;1.20;;;0.40;;
13847;SDS011;6994;49.752;6.094;2023-04-01T02:15:21;1.12;;;0.20;;
13847;SDS011;6994;49.752;6.094;2023-04-01T02:17:48;5.47;;;0.50;;
13847;SDS011;6994;49.752;6.094;2023-04-01T02:20:15;4.72;;;0.70;;
13847;SDS011;6994;49.752;6.094;2023-04-01T02:22:53;2.12;;;0.98;;
13847;SDS011;6994;49.752;6.094;2023-04-01T02:25:18;2.42;;;0.50;;
13847;SDS011;6994;49.752;6.094;2023-04-01T02:27:46;1.20;;;0.50;;
13847;SDS011;6994;49.752;6.094;2023-04-01T02:30:13;1.85;;;0.60;;
13847;SDS011;6994;49.752;6.094;2023-04-01T02:32:40;1.95;;;0.50;;
13847;SDS011;6994;49.752;6.094;2023-04-01T02:35:10;2.87;;;0.70;;
13847;SDS011;6994;49.752;6.094;2023-04-01T02:37:38;3.05;;;0.70;;
13847;SDS011;6994;49.752;6.094;2023-04-01T02:40:05;3.97;;;0.62;;
13847;SDS011;6994;49.752;6.094;2023-04-01T02:42:32;2.15;;;0.57;;
13847;SDS011;6994;49.752;6.094;2023-04-01T02:45:00;4.55;;;0.73;;
13847;SDS011;6994;49.752;6.094;2023-04-01T02:47:28;2.80;;;0.70;;
13847;SDS011;6994;49.752;6.094;2023-04-01T02:49:56;4.75;;;0.45;;
13847;SDS011;6994;49.752;6.094;2023-04-01T02:52:27;0.80;;;0.22;;
13847;SDS011;6994;49.752;6.094;2023-04-01T02:54:52;1.27;;;0.50;;
13847;SDS011;6994;49.752;6.094;2023-04-01T02:57:20;3.78;;;0.85;;
13847;SDS011;6994;49.752;6.094;2023-04-01T02:59:47;2.85;;;1.05;;
13847;SDS011;6994;49.752;6.094;2023-04-01T03:02:15;1.70;;;0.40;;
13847;SDS011;6994;49.752;6.094;2023-04-01T03:04:42;2.30;;;0.52;;
13847;SDS011;6994;49.752;6.094;2023-04-01T03:07:09;2.20;;;0.43;;
13847;SDS011;6994;49.752;6.094;2023-04-01T03:09:37;0.98;;;0.40;;
13847;SDS011;6994;49.752;6.094;2023-04-01T03:12:04;1.87;;;0.68;;
13847;SDS011;6994;49.752;6.094;2023-04-01T03:14:32;0.30;;;0.20;;
13847;SDS011;6994;49.752;6.094;2023-04-01T03:17:00;3.78;;;0.50;;
13847;SDS011;6994;49.752;6.094;2023-04-01T03:19:27;2.47;;;0.75;;
13847;SDS011;6994;49.752;6.094;2023-04-01T03:21:55;2.25;;;0.55;;
13847;SDS011;6994;49.752;6.094;2023-04-01T03:24:23;4.05;;;0.80;;
13847;SDS011;6994;49.752;6.094;2023-04-01T03:26:51;0.98;;;0.37;;
13847;SDS011;6994;49.752;6.094;2023-04-01T03:29:18;0.95;;;0.40;;
13847;SDS011;6994;49.752;6.094;2023-04-01T03:31:46;1.73;;;0.40;;
13847;SDS011;6994;49.752;6.094;2023-04-01T03:34:14;4.55;;;0.35;;
13847;SDS011;6994;49.752;6.094;2023-04-01T03:36:42;1.77;;;0.62;;
13847;SDS011;6994;49.752;6.094;2023-04-01T03:39:09;2.10;;;0.57;;
13847;SDS011;6994;49.752;6.094;2023-04-01T03:41:37;2.05;;;0.43;;
13847;SDS011;6994;49.752;6.094;2023-04-01T03:44:05;0.85;;;0.43;;
13847;SDS011;6994;49.752;6.094;2023-04-01T03:46:32;1.55;;;0.32;;
13847;SDS011;6994;49.752;6.094;2023-04-01T03:48:59;0.50;;;0.37;;
13847;SDS011;6994;49.752;6.094;2023-04-01T03:51:27;3.45;;;0.37;;
13847;SDS011;6994;49.752;6.094;2023-04-01T03:53:54;0.98;;;0.50;;
13847;SDS011;6994;49.752;6.094;2023-04-01T03:56:22;2.95;;;0.60;;
13847;SDS011;6994;49.752;6.094;2023-04-01T03:58:49;3.58;;;0.50;;
13847;SDS011;6994;49.752;6.094;2023-04-01T04:01:18;5.18;;;0.40;;
13847;SDS011;6994;49.752;6.094;2023-04-01T04:03:45;0.43;;;0.10;;
13847;SDS011;6994;49.752;6.094;2023-04-01T04:06:16;0.37;;;0.13;;
13847;SDS011;6994;49.752;6.094;2023-04-01T04:08:42;3.03;;;0.30;;
13847;SDS011;6994;49.752;6.094;2023-04-01T04:11:09;2.10;;;0.65;;
13847;SDS011;6994;49.752;6.094;2023-04-01T04:13:36;3.12;;;0.40;;
13847;SDS011;6994;49.752;6.094;2023-04-01T04:16:04;0.43;;;0.30;;
13847;SDS011;6994;49.752;6.094;2023-04-01T04:18:31;1.20;;;0.37;;
13847;SDS011;6994;49.752;6.094;2023-04-01T04:20:58;1.67;;;0.30;;
13847;SDS011;6994;49.752;6.094;2023-04-01T04:23:25;2.28;;;0.50;;
13847;SDS011;6994;49.752;6.094;2023-04-01T04:25:56;0.47;;;0.20;;
13847;SDS011;6994;49.752;6.094;2023-04-01T04:28:22;0.45;;;0.25;;
13847;SDS011;6994;49.752;6.094;2023-04-01T04:30:50;1.33;;;0.30;;
13847;SDS011;6994;49.752;6.094;2023-04-01T04:33:17;0.52;;;0.15;;
13847;SDS011;6994;49.752;6.094;2023-04-01T04:35:44;2.60;;;0.40;;
13847;SDS011;6994;49.752;6.094;2023-04-01T04:38:11;2.35;;;0.50;;
13847;SDS011;6994;49.752;6.094;2023-04-01T04:40:39;1.45;;;0.40;;
13847;SDS011;6994;49.752;6.094;2023-04-01T04:43:06;0.85;;;0.30;;
13847;SDS011;6994;49.752;6.094;2023-04-01T04:45:33;0.85;;;0.28;;
13847;SDS011;6994;49.752;6.094;2023-04-01T04:48:00;1.17;;;0.20;;
13847;SDS011;6994;49.752;6.094;2023-04-01T04:50:27;1.77;;;0.40;;
13847;SDS011;6994;49.752;6.094;2023-04-01T04:52:54;1.02;;;0.20;;
13847;SDS011;6994;49.752;6.094;2023-04-01T04:55:22;2.30;;;0.47;;
13847;SDS011;6994;49.752;6.094;2023-04-01T04:57:49;2.72;;;1.67;;
13847;SDS011;6994;49.752;6.094;2023-04-01T05:00:17;0.95;;;0.22;;
13847;SDS011;6994;49.752;6.094;2023-04-01T05:02:45;2.77;;;0.63;;
13847;SDS011;6994;49.752;6.094;2023-04-01T05:05:12;1.52;;;0.45;;
13847;SDS011;6994;49.752;6.094;2023-04-01T05:07:39;1.80;;;0.47;;
13847;SDS011;6994;49.752;6.094;2023-04-01T05:10:07;3.15;;;0.25;;
13847;SDS011;6994;49.752;6.094;2023-04-01T05:12:34;2.35;;;0.40;;
13847;SDS011;6994;49.752;6.094;2023-04-01T05:15:04;1.20;;;0.43;;
13847;SDS011;6994;49.752;6.094;2023-04-01T05:17:30;1.12;;;0.30;;
13847;SDS011;6994;49.752;6.094;2023-04-01T05:19:57;1.48;;;0.30;;
13847;SDS011;6994;49.752;6.094;2023-04-01T05:22:25;0.77;;;0.22;;
13847;SDS011;6994;49.752;6.094;2023-04-01T05:24:53;1.65;;;0.32;;
13847;SDS011;6994;49.752;6.094;2023-04-01T05:27:20;1.92;;;0.30;;
13847;SDS011;6994;49.752;6.094;2023-04-01T05:29:47;0.40;;;0.20;;
13847;SDS011;6994;49.752;6.094;2023-04-01T05:32:15;2.08;;;0.40;;
13847;SDS011;6994;49.752;6.094;2023-04-01T05:34:43;0.82;;;0.20;;
13847;SDS011;6994;49.752;6.094;2023-04-01T05:37:11;2.83;;;0.22;;
13847;SDS011;6994;49.752;6.094;2023-04-01T05:39:39;2.05;;;0.30;;
13847;SDS011;6994;49.752;6.094;2023-04-01T05:42:06;0.40;;;0.20;;
13847;SDS011;6994;49.752;6.094;2023-04-01T05:44:33;0.35;;;0.28;;
13847;SDS011;6994;49.752;6.094;2023-04-01T05:47:02;0.82;;;0.35;;
13847;SDS011;6994;49.752;6.094;2023-04-01T05:49:29;1.12;;;0.20;;
13847;SDS011;6994;49.752;6.094;2023-04-01T05:51:56;1.67;;;0.20;;
13847;SDS011;6994;49.752;6.094;2023-04-01T05:54:24;2.67;;;0.30;;
13847;SDS011;6994;49.752;6.094;2023-04-01T05:56:52;0.62;;;0.28;;
13847;SDS011;6994;49.752;6.094;2023-04-01T05:59:19;3.05;;;0.22;;
13847;SDS011;6994;49.752;6.094;2023-04-01T06:01:46;2.33;;;0.57;;
13847;SDS011;6994;49.752;6.094;2023-04-01T06:04:14;0.20;;;0.20;;
13847;SDS011;6994;49.752;6.094;2023-04-01T06:06:41;1.75;;;0.40;;
13847;SDS011;6994;49.752;6.094;2023-04-01T06:09:15;0.28;;;0.10;;
13847;SDS011;6994;49.752;6.094;2023-04-01T06:20:24;1.17;;;0.20;;
13847;SDS011;6994;49.752;6.094;2023-04-01T06:25:24;0.32;;;0.10;;
13847;SDS011;6994;49.752;6.094;2023-04-01T06:27:59;1.33;;;0.10;;
13847;SDS011;6994;49.752;6.094;2023-04-01T06:33:14;1.03;;;0.13;;
13847;SDS011;6994;49.752;6.094;2023-04-01T06:41:31;2.58;;;0.22;;
13847;SDS011;6994;49.752;6.094;2023-04-01T06:44:14;0.30;;;0.10;;
13847;SDS011;6994;49.752;6.094;2023-04-01T06:49:39;1.67;;;0.35;;
13847;SDS011;6994;49.752;6.094;2023-04-01T06:52:17;1.02;;;0.17;;
13847;SDS011;6994;49.752;6.094;2023-04-01T06:54:58;1.67;;;0.10;;
13847;SDS011;6994;49.752;6.094;2023-04-01T07:00:14;0.45;;;0.20;;
13847;SDS011;6994;49.752;6.094;2023-04-01T07:02:54;0.13;;;0.10;;
13847;SDS011;6994;49.752;6.094;2023-04-01T07:05:32;0.37;;;0.13;;
13847;SDS011;6994;49.752;6.094;2023-04-01T07:07:59;0.32;;;0.10;;
13847;SDS011;6994;49.752;6.094;2023-04-01T07:10:39;0.17;;;0.10;;
13847;SDS011;6994;49.752;6.094;2023-04-01T07:13:17;0.20;;;0.20;;
13847;SDS011;6994;49.752;6.094;2023-04-01T07:15:58;0.20;;;0.10;;
13847;SDS011;6994;49.752;6.094;2023-04-01T07:18:41;0.10;;;0.10;;
13847;SDS011;6994;49.752;6.094;2023-04-01T07:21:06;1.12;;;0.10;;
13847;SDS011;6994;49.752;6.094;2023-04-01T07:23:33;0.13;;;0.10;;
13847;SDS011;6994;49.752;6.094;2023-04-01T07:26:00;1.75;;;0.22;;
13847;SDS011;6994;49.752;6.094;2023-04-01T07:28:30;1.08;;;0.25;;
13847;SDS011;6994;49.752;6.094;2023-04-01T07:31:13;3.53;;;0.17;;
13847;SDS011;6994;49.752;6.094;2023-04-01T07:33:42;0.28;;;0.20;;
13847;SDS011;6994;49.752;6.094;2023-04-01T07:36:19;0.52;;;0.15;;
13847;SDS011;6994;49.752;6.094;2023-04-01T07:41:32;0.30;;;0.20;;
13847;SDS011;6994;49.752;6.094;2023-04-01T07:44:10;1.35;;;0.60;;
13847;SDS011;6994;49.752;6.094;2023-04-01T07:47:08;0.55;;;0.15;;
13847;SDS011;6994;49.752;6.094;2023-04-01T07:49:31;0.65;;;0.10;;
13847;SDS011;6994;49.752;6.094;2023-04-01T07:52:01;0.77;;;0.22;;
13847;SDS011;6994;49.752;6.094;2023-04-01T07:57:22;1.33;;;0.52;;
13847;SDS011;6994;49.752;6.094;2023-04-01T08:00:02;1.02;;;0.77;;
13847;SDS011;6994;49.752;6.094;2023-04-01T08:13:39;1.35;;;0.10;;
13847;SDS011;6994;49.752;6.094;2023-04-01T08:21:42;0.68;;;0.20;;
13847;SDS011;6994;49.752;6.094;2023-04-01T08:24:22;0.17;;;0.10;;
13847;SDS011;6994;49.752;6.094;2023-04-01T08:26:53;0.35;;;0.10;;
13847;SDS011;6994;49.752;6.094;2023-04-01T08:29:26;0.73;;;0.30;;
13847;SDS011;6994;49.752;6.094;2023-04-01T08:34:25;1.65;;;0.30;;
13847;SDS011;6994;49.752;6.094;2023-04-01T08:36:57;0.28;;;0.20;;
13847;SDS011;6994;49.752;6.094;2023-04-01T08:39:27;1.00;;;0.30;;
13847;SDS011;6994;49.752;6.094;2023-04-01T08:41:59;0.70;;;0.25;;
13847;SDS011;6994;49.752;6.094;2023-04-01T08:59:04;0.73;;;0.30;;
13847;SDS011;6994;49.752;6.094;2023-04-01T09:04:38;0.15;;;0.10;;
13847;SDS011;6994;49.752;6.094;2023-04-01T09:12:31;2.83;;;0.30;;
13847;SDS011;6994;49.752;6.094;2023-04-01T09:15:13;0.30;;;0.10;;
13847;SDS011;6994;49.752;6.094;2023-04-01T09:18:09;0.10;;;0.10;;
13847;SDS011;6994;49.752;6.094;2023-04-01T09:23:25;0.17;;;0.15;;
13847;SDS011;6994;49.752;6.094;2023-04-01T09:29:20;0.65;;;0.62;;
13847;SDS011;6994;49.752;6.094;2023-04-01T09:34:51;2.72;;;0.10;;
13847;SDS011;6994;49.752;6.094;2023-04-01T09:39:52;0.28;;;0.10;;
13847;SDS011;6994;49.752;6.094;2023-04-01T09:45:23;1.12;;;0.25;;
13847;SDS011;6994;49.752;6.094;2023-04-01T09:48:14;0.40;;;0.10;;
13847;SDS011;6994;49.752;6.094;2023-04-01T09:51:17;0.20;;;0.20;;
13847;SDS011;6994;49.752;6.094;2023-04-01T09:53:36;0.25;;;0.10;;
13847;SDS011;6994;49.752;6.094;2023-04-01T09:59:12;1.00;;;0.30;;
13847;SDS011;6994;49.752;6.094;2023-04-01T10:04:46;0.20;;;0.10;;
13847;SDS011;6994;49.752;6.094;2023-04-01T10:07:22;0.10;;;0.10;;
13847;SDS011;6994;49.752;6.094;2023-04-01T10:15:19;0.35;;;0.30;;
13847;SDS011;6994;49.752;6.094;2023-04-01T10:17:49;0.73;;;0.17;;
13847;SDS011;6994;49.752;6.094;2023-04-01T10:20:45;0.15;;;0.10;;
13847;SDS011;6994;49.752;6.094;2023-04-01T10:29:13;0.40;;;0.35;;
13847;SDS011;6994;49.752;6.094;2023-04-01T10:36:59;0.32;;;0.20;;
13847;SDS011;6994;49.752;6.094;2023-04-01T10:42:18;0.00;;;0.00;;
13847;SDS011;6994;49.752;6.094;2023-04-01T10:47:39;0.35;;;0.00;;
13847;SDS011;6994;49.752;6.094;2023-04-01T10:55:35;0.52;;;0.10;;
13847;SDS011;6994;49.752;6.094;2023-04-01T11:14:42;1.02;;;0.30;;
13847;SDS011;6994;49.752;6.094;2023-04-01T11:17:35;1.33;;;0.30;;
13847;SDS011;6994;49.752;6.094;2023-04-01T11:22:46;0.57;;;0.40;;
13847;SDS011;6994;49.752;6.094;2023-04-01T11:25:24;0.52;;;0.22;;
13847;SDS011;6994;49.752;6.094;2023-04-01T11:31:00;0.62;;;0.40;;
13847;SDS011;6994;49.752;6.094;2023-04-01T11:36:46;2.75;;;0.60;;
13847;SDS011;6994;49.752;6.094;2023-04-01T11:39:11;0.52;;;0.22;;
13847;SDS011;6994;49.752;6.094;2023-04-01T11:41:41;0.17;;;0.10;;
13847;SDS011;6994;49.752;6.094;2023-04-01T11:44:15;0.05;;;0.05;;
13847;SDS011;6994;49.752;6.094;2023-04-01T11:52:13;0.85;;;0.28;;
13847;SDS011;6994;49.752;6.094;2023-04-01T11:55:02;1.15;;;0.30;;
13847;SDS011;6994;49.752;6.094;2023-04-01T12:00:31;0.28;;;0.20;;
13847;SDS011;6994;49.752;6.094;2023-04-01T12:06:05;0.10;;;0.10;;
13847;SDS011;6994;49.752;6.094;2023-04-01T12:08:39;0.00;;;0.00;;
13847;SDS011;6994;49.752;6.094;2023-04-01T12:11:20;0.10;;;0.10;;
13847;SDS011;6994;49.752;6.094;2023-04-01T12:13:45;0.15;;;0.15;;
13847;SDS011;6994;49.752;6.094;2023-04-01T12:19:13;0.50;;;0.13;;
13847;SDS011;6994;49.752;6.094;2023-04-01T12:21:51;0.65;;;0.10;;
13847;SDS011;6994;49.752;6.094;2023-04-01T12:32:20;0.35;;;0.10;;
13847;SDS011;6994;49.752;6.094;2023-04-01T12:37:36;0.43;;;0.10;;
13847;SDS011;6994;49.752;6.094;2023-04-01T12:45:23;0.30;;;0.30;;
13847;SDS011;6994;49.752;6.094;2023-04-01T12:47:55;1.08;;;0.10;;
13847;SDS011;6994;49.752;6.094;2023-04-01T12:50:29;0.20;;;0.20;;
13847;SDS011;6994;49.752;6.094;2023-04-01T12:53:24;0.30;;;0.20;;
13847;SDS011;6994;49.752;6.094;2023-04-01T12:55:51;0.20;;;0.10;;
13847;SDS011;6994;49.752;6.094;2023-04-01T13:04:28;0.20;;;0.20;;
13847;SDS011;6994;49.752;6.094;2023-04-01T13:07:16;0.50;;;0.17;;
13847;SDS011;6994;49.752;6.094;2023-04-01T13:13:45;0.10;;;0.08;;
13847;SDS011;6994;49.752;6.094;2023-04-01T13:20:44;0.20;;;0.17;;
13847;SDS011;6994;49.752;6.094;2023-04-01T13:26:13;0.45;;;0.15;;
13847;SDS011;6994;49.752;6.094;2023-04-01T13:28:43;0.52;;;0.30;;
13847;SDS011;6994;49.752;6.094;2023-04-01T13:31:29;0.37;;;0.10;;
13847;SDS011;6994;49.752;6.094;2023-04-01T13:37:50;0.88;;;0.22;;
13847;SDS011;6994;49.752;6.094;2023-04-01T13:39:51;0.40;;;0.10;;
13847;SDS011;6994;49.752;6.094;2023-04-01T13:44:59;0.10;;;0.10;;
13847;SDS011;6994;49.752;6.094;2023-04-01T13:50:17;0.60;;;0.30;;
13847;SDS011;6994;49.752;6.094;2023-04-01T13:55:30;1.45;;;0.10;;
13847;SDS011;6994;49.752;6.094;2023-04-01T14:05:50;2.17;;;0.50;;
13847;SDS011;6994;49.752;6.094;2023-04-01T14:08:34;1.23;;;0.40;;
13847;SDS011;6994;49.752;6.094;2023-04-01T14:16:28;0.77;;;0.30;;
13847;SDS011;6994;49.752;6.094;2023-04-01T14:24:52;0.73;;;0.20;;
13847;SDS011;6994;49.752;6.094;2023-04-01T14:27:23;0.22;;;0.10;;
13847;SDS011;6994;49.752;6.094;2023-04-01T14:29:59;1.33;;;0.13;;
13847;SDS011;6994;49.752;6.094;2023-04-01T14:38:06;1.65;;;0.20;;
13847;SDS011;6994;49.752;6.094;2023-04-01T14:43:28;0.10;;;0.10;;
13847;SDS011;6994;49.752;6.094;2023-04-01T14:48:48;0.10;;;0.10;;
13847;SDS011;6994;49.752;6.094;2023-04-01T14:51:16;1.48;;;0.20;;
13847;SDS011;6994;49.752;6.094;2023-04-01T14:53:51;0.30;;;0.30;;
13847;SDS011;6994;49.752;6.094;2023-04-01T14:56:12;1.23;;;0.32;;
13847;SDS011;6994;49.752;6.094;2023-04-01T15:03:48;1.40;;;0.20;;
13847;SDS011;6994;49.752;6.094;2023-04-01T15:08:55;1.40;;;0.25;;
13847;SDS011;6994;49.752;6.094;2023-04-01T15:11:29;0.45;;;0.20;;
13847;SDS011;6994;49.752;6.094;2023-04-01T15:22:02;0.30;;;0.30;;
13847;SDS011;6994;49.752;6.094;2023-04-01T15:24:45;2.67;;;0.10;;
13847;SDS011;6994;49.752;6.094;2023-04-01T15:27:10;0.43;;;0.17;;
13847;SDS011;6994;49.752;6.094;2023-04-01T15:29:39;0.85;;;0.20;;
13847;SDS011;6994;49.752;6.094;2023-04-01T15:34:55;0.55;;;0.20;;
13847;SDS011;6994;49.752;6.094;2023-04-01T15:37:22;0.20;;;0.10;;
13847;SDS011;6994;49.752;6.094;2023-04-01T15:40:07;0.93;;;0.30;;
13847;SDS011;6994;49.752;6.094;2023-04-01T15:42:41;0.55;;;0.20;;
13847;SDS011;6994;49.752;6.094;2023-04-01T15:47:33;0.20;;;0.10;;
13847;SDS011;6994;49.752;6.094;2023-04-01T15:53:12;0.60;;;0.20;;
13847;SDS011;6994;49.752;6.094;2023-04-01T15:55:50;0.52;;;0.52;;
13847;SDS011;6994;49.752;6.094;2023-04-01T16:01:26;2.10;;;0.50;;
13847;SDS011;6994;49.752;6.094;2023-04-01T16:07:03;1.25;;;0.50;;
13847;SDS011;6994;49.752;6.094;2023-04-01T16:12:30;0.62;;;0.32;;
13847;SDS011;6994;49.752;6.094;2023-04-01T16:17:53;0.28;;;0.22;;
13847;SDS011;6994;49.752;6.094;2023-04-01T16:23:32;1.73;;;0.43;;
13847;SDS011;6994;49.752;6.094;2023-04-01T16:25:49;1.08;;;0.50;;
13847;SDS011;6994;49.752;6.094;2023-04-01T16:28:16;1.75;;;0.40;;
13847;SDS011;6994;49.752;6.094;2023-04-01T16:31:09;0.52;;;0.40;;
13847;SDS011;6994;49.752;6.094;2023-04-01T16:33:40;0.70;;;0.40;;
13847;SDS011;6994;49.752;6.094;2023-04-01T16:36:08;0.47;;;0.37;;
13847;SDS011;6994;49.752;6.094;2023-04-01T16:38:39;1.65;;;0.20;;
13847;SDS011;6994;49.752;6.094;2023-04-01T16:41:11;0.60;;;0.40;;
13847;SDS011;6994;49.752;6.094;2023-04-01T16:43:53;1.52;;;0.30;;
13847;SDS011;6994;49.752;6.094;2023-04-01T16:46:26;1.15;;;0.40;;
13847;SDS011;6994;49.752;6.094;2023-04-01T16:51:25;1.33;;;0.20;;
13847;SDS011;6994;49.752;6.094;2023-04-01T16:54:00;0.93;;;0.10;;
13847;SDS011;6994;49.752;6.094;2023-04-01T16:56:23;0.60;;;0.32;;
13847;SDS011;6994;49.752;6.094;2023-04-01T16:59:04;0.20;;;0.20;;
13847;SDS011;6994;49.752;6.094;2023-04-01T17:04:25;0.55;;;0.30;;
13847;SDS011;6994;49.752;6.094;2023-04-01T17:06:53;0.70;;;0.20;;
13847;SDS011;6994;49.752;6.094;2023-04-01T17:09:28;0.20;;;0.20;;
13847;SDS011;6994;49.752;6.094;2023-04-01T17:23:12;0.62;;;0.20;;
13847;SDS011;6994;49.752;6.094;2023-04-01T17:25:53;0.28;;;0.22;;
13847;SDS011;6994;49.752;6.094;2023-04-01T17:28:37;0.98;;;0.32;;
13847;SDS011;6994;49.752;6.094;2023-04-01T17:34:03;1.73;;;0.45;;
13847;SDS011;6994;49.752;6.094;2023-04-01T17:36:42;0.20;;;0.20;;
13847;SDS011;6994;49.752;6.094;2023-04-01T17:39:21;1.55;;;0.40;;
13847;SDS011;6994;49.752;6.094;2023-04-01T17:44:18;0.73;;;0.47;;
13847;SDS011;6994;49.752;6.094;2023-04-01T17:46:56;0.45;;;0.45;;
13847;SDS011;6994;49.752;6.094;2023-04-01T17:49:45;0.60;;;0.60;;
13847;SDS011;6994;49.752;6.094;2023-04-01T17:57:49;1.23;;;0.60;;
13847;SDS011;6994;49.752;6.094;2023-04-01T18:00:26;1.42;;;0.60;;
13847;SDS011;6994;49.752;6.094;2023-04-01T18:05:43;1.12;;;0.77;;
13847;SDS011;6994;49.752;6.094;2023-04-01T18:16:51;1.62;;;0.90;;
13847;SDS011;6994;49.752;6.094;2023-04-01T18:19:16;3.22;;;1.00;;
13847;SDS011;6994;49.752;6.094;2023-04-01T18:21:39;1.33;;;0.80;;
13847;SDS011;6994;49.752;6.094;2023-04-01T18:24:10;0.80;;;0.80;;
13847;SDS011;6994;49.752;6.094;2023-04-01T18:26:34;2.72;;;1.00;;
13847;SDS011;6994;49.752;6.094;2023-04-01T18:32:00;3.17;;;1.10;;
13847;SDS011;6994;49.752;6.094;2023-04-01T18:37:18;2.08;;;1.62;;
13847;SDS011;6994;49.752;6.094;2023-04-01T18:39:52;2.58;;;1.42;;
13847;SDS011;6994;49.752;6.094;2023-04-01T18:45:23;2.00;;;1.33;;
13847;SDS011;6994;49.752;6.094;2023-04-01T18:48:08;2.87;;;1.75;;
13847;SDS011;6994;49.752;6.094;2023-04-01T18:50:30;1.75;;;1.55;;
13847;SDS011;6994;49.752;6.094;2023-04-01T18:52:59;1.95;;;1.75;;
13847;SDS011;6994;49.752;6.094;2023-04-01T18:55:39;1.75;;;1.62;;
13847;SDS011;6994;49.752;6.094;2023-04-01T19:01:04;1.50;;;1.40;;
13847;SDS011;6994;49.752;6.094;2023-04-01T19:03:34;1.37;;;1.23;;
13847;SDS011;6994;49.752;6.094;2023-04-01T19:05:59;1.95;;;1.40;;
13847;SDS011;6994;49.752;6.094;2023-04-01T19:14:05;1.85;;;1.40;;
13847;SDS011;6994;49.752;6.094;2023-04-01T19:16:46;2.50;;;1.25;;
13847;SDS011;6994;49.752;6.094;2023-04-01T19:29:43;2.53;;;1.87;;
13847;SDS011;6994;49.752;6.094;2023-04-01T19:32:21;1.58;;;1.48;;
13847;SDS011;6994;49.752;6.094;2023-04-01T19:37:44;4.45;;;2.65;;
13847;SDS011;6994;49.752;6.094;2023-04-01T19:42:55;5.90;;;3.65;;
13847;SDS011;6994;49.752;6.094;2023-04-01T19:53:38;5.57;;;3.08;;
13847;SDS011;6994;49.752;6.094;2023-04-01T19:55:57;4.47;;;2.97;;
13847;SDS011;6994;49.752;6.094;2023-04-01T19:58:32;2.75;;;2.15;;
13847;SDS011;6994;49.752;6.094;2023-04-01T20:00:58;3.10;;;2.55;;
13847;SDS011;6994;49.752;6.094;2023-04-01T20:03:29;3.95;;;2.35;;
13847;SDS011;6994;49.752;6.094;2023-04-01T20:11:38;2.47;;;1.92;;
13847;SDS011;6994;49.752;6.094;2023-04-01T20:19:44;1.90;;;1.33;;
13847;SDS011;6994;49.752;6.094;2023-04-01T20:22:23;1.65;;;1.55;;
13847;SDS011;6994;49.752;6.094;2023-04-01T20:24:49;2.50;;;1.35;;
13847;SDS011;6994;49.752;6.094;2023-04-01T20:27:18;2.85;;;1.42;;
13847;SDS011;6994;49.752;6.094;2023-04-01T20:32:40;1.40;;;1.30;;
13847;SDS011;6994;49.752;6.094;2023-04-01T20:38:14;1.70;;;1.23;;
13847;SDS011;6994;49.752;6.094;2023-04-01T20:40:41;1.37;;;1.10;;
13847;SDS011;6994;49.752;6.094;2023-04-01T20:46:01;2.62;;;1.20;;
13847;SDS011;6994;49.752;6.094;2023-04-01T20:51:14;1.83;;;1.50;;
13847;SDS011;6994;49.752;6.094;2023-04-01T20:53:43;1.20;;;1.10;;
13847;SDS011;6994;49.752;6.094;2023-04-01T20:59:16;3.55;;;3.05;;
13847;SDS011;6994;49.752;6.094;2023-04-01T21:01:51;1.30;;;1.20;;
13847;SDS011;6994;49.752;6.094;2023-04-01T21:04:22;2.20;;;2.10;;
13847;SDS011;6994;49.752;6.094;2023-04-01T21:14:34;1.62;;;1.40;;
13847;SDS011;6994;49.752;6.094;2023-04-01T21:17:25;2.92;;;2.17;;
13847;SDS011;6994;49.752;6.094;2023-04-01T21:25:30;4.05;;;1.65;;
13847;SDS011;6994;49.752;6.094;2023-04-01T21:28:05;1.58;;;1.10;;
13847;SDS011;6994;49.752;6.094;2023-04-01T21:30:44;2.12;;;1.52;;
13847;SDS011;6994;49.752;6.094;2023-04-01T21:36:23;1.55;;;1.40;;
13847;SDS011;6994;49.752;6.094;2023-04-01T21:39:06;3.25;;;1.27;;
13847;SDS011;6994;49.752;6.094;2023-04-01T21:41:57;1.90;;;1.60;;
13847;SDS011;6994;49.752;6.094;2023-04-01T21:47:26;4.97;;;2.37;;
13847;SDS011;6994;49.752;6.094;2023-04-01T21:52:46;3.10;;;2.62;;
13847;SDS011;6994;49.752;6.094;2023-04-01T22:06:40;3.28;;;2.83;;
13847;SDS011;6994;49.752;6.094;2023-04-01T22:09:29;3.33;;;2.45;;
13847;SDS011;6994;49.752;6.094;2023-04-01T22:14:22;3.22;;;2.12;;
13847;SDS011;6994;49.752;6.094;2023-04-01T22:17:09;2.55;;;2.30;;
13847;SDS011;6994;49.752;6.094;2023-04-01T22:19:36;2.75;;;2.47;;
13847;SDS011;6994;49.752;6.094;2023-04-01T22:27:30;3.65;;;2.30;;
13847;SDS011;6994;49.752;6.094;2023-04-01T22:30:16;3.05;;;2.85;;
13847;SDS011;6994;49.752;6.094;2023-04-01T22:32:44;3.10;;;2.80;;
13847;SDS011;6994;49.752;6.094;2023-04-01T22:37:53;3.22;;;2.60;;
13847;SDS011;6994;49.752;6.094;2023-04-01T22:40:25;4.05;;;2.35;;